createdAt,value
2018-06-04T00:00:50.341Z,7.7
2018-06-04T00:02:50.505Z,7.7
2018-06-04T00:04:49.988Z,7.7
2018-06-04T00:06:50.191Z,7.7
2018-06-04T00:08:50.400Z,7.6
2018-06-04T00:10:49.584Z,7.6
2018-06-04T00:12:49.688Z,7.9
2018-06-04T00:14:49.862Z,7.9
2018-06-04T00:16:50.140Z,8.2
2018-06-04T00:18:49.557Z,8.4
2018-06-04T00:20:49.718Z,8.4
2018-06-04T00:22:49.913Z,8.5
2018-06-04T00:24:50.075Z,8.5
2018-06-04T00:26:50.311Z,8.3
2018-06-04T00:28:50.485Z,8.3
2018-06-04T00:30:49.609Z,8.3
2018-06-04T00:32:49.724Z,8.2
2018-06-04T00:34:50.104Z,8.5
2018-06-04T00:36:50.317Z,8.6
2018-06-04T00:38:49.652Z,8.9
2018-06-04T00:40:49.821Z,8.9
2018-06-04T00:42:50.003Z,8.6
2018-06-04T00:44:50.138Z,8.4
2018-06-04T00:46:50.375Z,8.7
2018-06-04T00:48:50.506Z,8.8
2018-06-04T00:50:49.735Z,8.9
2018-06-04T00:52:49.965Z,8.9
2018-06-04T00:54:50.094Z,9.0
2018-06-04T00:56:50.298Z,9.0
2018-06-04T00:58:50.520Z,8.8
2018-06-04T01:00:49.683Z,8.8
2018-06-04T01:02:49.867Z,9.0
2018-06-04T01:04:50.288Z,9.3
2018-06-04T01:06:50.496Z,9.5
2018-06-04T01:08:49.631Z,9.5
2018-06-04T01:10:49.793Z,9.5
2018-06-04T01:12:49.998Z,9.1
2018-06-04T01:14:50.186Z,9.7
2018-06-04T01:16:50.343Z,9.5
2018-06-04T01:18:50.469Z,9.6
2018-06-04T01:20:49.592Z,9.6
2018-06-04T01:22:49.716Z,9.7
2018-06-04T01:24:49.864Z,9.9
2018-06-04T01:26:50.087Z,9.6
2018-06-04T01:28:50.217Z,10.1
2018-06-04T01:30:50.400Z,10.1
2018-06-04T01:32:49.611Z,10.6
2018-06-04T01:34:49.931Z,10.4
2018-06-04T01:36:50.157Z,10.2
2018-06-04T01:38:50.366Z,10.0
2018-06-04T01:40:49.642Z,10.0
2018-06-04T01:42:49.899Z,10.5
2018-06-04T01:44:50.087Z,10.6
2018-06-04T01:46:50.371Z,10.4
2018-06-04T01:48:49.542Z,10.5
2018-06-04T01:50:49.682Z,10.5
2018-06-04T01:52:49.826Z,10.8
2018-06-04T01:54:49.973Z,11.1
2018-06-04T01:56:50.232Z,10.8
2018-06-04T01:58:50.396Z,10.8
2018-06-04T02:00:49.591Z,10.9
2018-06-04T02:02:49.733Z,10.7
2018-06-04T02:04:50.160Z,10.7
2018-06-04T02:06:50.381Z,11.1
2018-06-04T02:08:50.323Z,10.9
2018-06-04T02:10:50.449Z,10.9
2018-06-04T02:12:49.576Z,11.0
2018-06-04T02:14:49.849Z,11.0
2018-06-04T02:16:50.186Z,11.2
2018-06-04T02:18:50.328Z,11.2
2018-06-04T02:20:50.471Z,12.1
2018-06-04T02:22:49.598Z,11.5
2018-06-04T02:24:49.703Z,11.5
2018-06-04T02:26:49.975Z,11.5
2018-06-04T02:28:50.187Z,11.5
2018-06-04T02:30:50.522Z,11.5
2018-06-04T02:32:49.691Z,10.9
2018-06-04T02:34:50.000Z,11.5
2018-06-04T02:36:50.220Z,11.6
2018-06-04T02:38:50.392Z,11.6
2018-06-04T02:40:49.566Z,11.9
2018-06-04T02:42:49.853Z,11.3
2018-06-04T02:44:50.071Z,11.6
2018-06-04T02:46:50.377Z,11.6
2018-06-04T02:48:49.572Z,12.6
2018-06-04T02:50:49.749Z,11.8
2018-06-04T02:52:49.901Z,12.2
2018-06-04T02:54:50.057Z,12.2
2018-06-04T02:56:50.328Z,13.2
2018-06-04T02:58:50.505Z,12.0
2018-06-04T03:00:49.679Z,12.3
2018-06-04T03:02:49.809Z,12.6
2018-06-04T03:04:50.176Z,12.6
2018-06-04T03:06:50.447Z,12.6
2018-06-04T03:08:49.680Z,12.6
2018-06-04T03:10:49.840Z,12.3
2018-06-04T03:12:49.991Z,12.8
2018-06-04T03:14:50.215Z,12.8
2018-06-04T03:16:50.464Z,12.8
2018-06-04T03:18:49.672Z,13.1
2018-06-04T03:20:49.858Z,13.5
2018-06-04T03:22:49.993Z,13.5
2018-06-04T03:24:50.150Z,13.8
2018-06-04T03:26:50.386Z,13.8
2018-06-04T03:28:49.585Z,13.4
2018-06-04T03:30:49.769Z,14.7
2018-06-04T03:32:49.932Z,15.1
2018-06-04T03:34:50.593Z,15.1
2018-06-04T03:36:50.220Z,15.3
2018-06-04T03:38:50.368Z,14.2
2018-06-04T03:40:50.384Z,15.2
2018-06-04T03:42:50.487Z,14.8
2018-06-04T03:44:49.665Z,15.1
2018-06-04T03:46:49.877Z,15.1
2018-06-04T03:48:50.076Z,20.8
2018-06-04T03:50:50.239Z,15.8
2018-06-04T03:52:50.425Z,14.9
2018-06-04T03:54:49.584Z,14.9
2018-06-04T03:56:49.799Z,14.9
2018-06-04T03:58:49.905Z,14.9
2018-06-04T04:00:50.072Z,15.6
2018-06-04T04:02:50.363Z,15.3
2018-06-04T04:04:49.909Z,15.3
2018-06-04T04:06:50.155Z,14.5
2018-06-04T04:08:50.348Z,14.4
2018-06-04T04:10:50.507Z,14.3
2018-06-04T04:12:49.734Z,14.8
2018-06-04T04:14:49.906Z,14.8
2018-06-04T04:16:50.111Z,14.7
2018-06-04T04:18:50.286Z,15.1
2018-06-04T04:20:50.489Z,14.4
2018-06-04T04:22:49.730Z,14.9
2018-06-04T04:24:49.863Z,14.9
2018-06-04T04:26:50.523Z,14.3
2018-06-04T04:28:49.723Z,14.4
2018-06-04T04:30:49.844Z,14.8
2018-06-04T04:32:50.038Z,14.5
2018-06-04T04:34:49.580Z,14.5
2018-06-04T04:36:49.789Z,14.8
2018-06-04T04:38:49.959Z,14.8
2018-06-04T04:40:50.177Z,14.8
2018-06-04T04:42:50.365Z,14.8
2018-06-04T04:44:50.464Z,14.2
2018-06-04T04:46:49.607Z,14.1
2018-06-04T04:48:49.750Z,15.1
2018-06-04T04:50:49.911Z,14.4
2018-06-04T04:52:50.113Z,14.4
2018-06-04T04:54:50.266Z,14.6
2018-06-04T04:56:49.682Z,14.0
2018-06-04T04:58:49.872Z,14.0
2018-06-04T05:00:50.002Z,14.7
2018-06-04T05:02:50.104Z,14.7
2018-06-04T05:04:50.410Z,14.1
2018-06-04T05:06:49.606Z,13.9
2018-06-04T05:08:49.809Z,13.9
2018-06-04T05:10:49.932Z,14.5
2018-06-04T05:12:50.116Z,14.5
2018-06-04T05:14:50.219Z,14.0
2018-06-04T05:16:50.478Z,14.0
2018-06-04T05:18:49.763Z,13.9
2018-06-04T05:20:50.249Z,13.8
2018-06-04T05:22:49.544Z,13.8
2018-06-04T05:24:49.715Z,14.0
2018-06-04T05:26:49.927Z,13.5
2018-06-04T05:28:50.120Z,13.2
2018-06-04T05:30:50.283Z,13.2
2018-06-04T05:32:50.514Z,13.7
2018-06-04T05:34:49.885Z,13.9
2018-06-04T05:36:50.524Z,13.6
2018-06-04T05:38:49.652Z,13.4
2018-06-04T05:40:49.787Z,13.4
2018-06-04T05:42:49.918Z,13.4
2018-06-04T05:44:50.050Z,13.4
2018-06-04T05:46:50.312Z,14.0
2018-06-04T05:48:50.505Z,13.0
2018-06-04T05:50:49.623Z,13.0
2018-06-04T05:52:49.737Z,13.2
2018-06-04T05:54:49.865Z,13.0
2018-06-04T05:56:50.132Z,13.3
2018-06-04T05:58:50.219Z,13.3
2018-06-04T06:00:50.351Z,12.9
2018-06-04T06:02:50.454Z,12.7
2018-06-04T06:04:49.873Z,13.3
2018-06-04T06:06:50.125Z,12.6
2018-06-04T06:08:50.279Z,12.5
2018-06-04T06:10:50.394Z,12.5
2018-06-04T06:12:49.535Z,12.4
2018-06-04T06:14:49.725Z,12.1
2018-06-04T06:16:50.007Z,12.1
2018-06-04T06:18:50.390Z,12.2
2018-06-04T06:20:49.571Z,12.2
2018-06-04T06:22:49.783Z,11.2
2018-06-04T06:24:49.885Z,11.2
2018-06-04T06:26:50.117Z,11.4
2018-06-04T06:28:50.264Z,11.4
2018-06-04T06:30:50.533Z,11.0
2018-06-04T06:32:50.208Z,11.3
2018-06-04T06:34:49.583Z,11.0
2018-06-04T06:36:49.854Z,10.7
2018-06-04T06:38:50.027Z,10.7
2018-06-04T06:40:50.287Z,10.1
2018-06-04T06:42:50.453Z,10.3
2018-06-04T06:44:49.574Z,10.4
2018-06-04T06:46:49.779Z,10.4
2018-06-04T06:48:49.987Z,10.4
2018-06-04T06:50:50.118Z,10.1
2018-06-04T06:52:50.321Z,10.2
2018-06-04T06:54:50.464Z,10.2
2018-06-04T06:56:49.720Z,10.2
2018-06-04T06:58:49.932Z,10.0
2018-06-04T07:00:50.122Z,9.6
2018-06-04T07:02:50.283Z,9.3
2018-06-04T07:04:49.738Z,10.0
2018-06-04T07:06:50.000Z,10.0
2018-06-04T07:08:50.201Z,9.2
2018-06-04T07:10:50.359Z,9.3
2018-06-04T07:12:49.585Z,9.1
2018-06-04T07:14:49.807Z,9.3
2018-06-04T07:16:50.038Z,9.3
2018-06-04T07:18:50.266Z,9.5
2018-06-04T07:20:50.422Z,9.4
2018-06-04T07:22:49.793Z,9.3
2018-06-04T07:24:49.953Z,8.6
2018-06-04T07:26:50.491Z,8.6
2018-06-04T07:28:50.225Z,8.8
2018-06-04T07:30:50.433Z,8.9
2018-06-04T07:32:49.611Z,9.1
2018-06-04T07:34:50.051Z,9.1
2018-06-04T07:36:49.728Z,8.5
2018-06-04T07:38:49.897Z,8.8
2018-06-04T07:40:50.014Z,8.1
2018-06-04T07:42:50.136Z,8.1
2018-06-04T07:44:50.348Z,8.1
2018-06-04T07:46:49.642Z,8.5
2018-06-04T07:48:49.898Z,8.2
2018-06-04T07:50:50.058Z,8.6
2018-06-04T07:52:50.396Z,8.4
2018-06-04T07:54:49.568Z,8.0
2018-06-04T07:56:49.728Z,8.0
2018-06-04T07:58:49.842Z,8.1
2018-06-04T08:00:50.077Z,7.9
2018-06-04T08:02:49.616Z,9.1
2018-06-04T08:04:49.928Z,9.1
2018-06-04T08:06:50.171Z,8.5
2018-06-04T08:08:50.355Z,8.1
2018-06-04T08:10:50.518Z,8.1
2018-06-04T08:12:49.774Z,8.3
2018-06-04T08:14:49.888Z,8.3
2018-06-04T08:16:50.122Z,7.5
2018-06-04T08:18:50.276Z,7.5
2018-06-04T08:20:50.379Z,7.3
2018-06-04T08:22:50.499Z,7.3
2018-06-04T08:24:49.621Z,7.3
2018-06-04T08:26:49.970Z,8.0
2018-06-04T08:28:50.064Z,7.4
2018-06-04T08:30:50.160Z,8.0
2018-06-04T08:32:50.300Z,7.4
2018-06-04T08:34:49.677Z,7.4
2018-06-04T08:36:49.853Z,8.0
2018-06-04T08:38:50.041Z,7.6
2018-06-04T08:40:50.170Z,7.4
2018-06-04T08:42:50.381Z,7.4
2018-06-04T08:44:49.559Z,7.0
2018-06-04T08:46:49.852Z,7.4
2018-06-04T08:48:50.085Z,7.9
2018-06-04T08:50:50.279Z,7.6
2018-06-04T08:52:50.467Z,7.6
2018-06-04T08:54:49.597Z,7.7
2018-06-04T08:56:49.925Z,7.7
2018-06-04T08:58:50.069Z,7.7
2018-06-04T09:00:50.274Z,8.0
2018-06-04T09:02:50.370Z,8.0
2018-06-04T09:04:49.833Z,7.9
2018-06-04T09:06:50.073Z,8.1
2018-06-04T09:08:50.251Z,8.0
2018-06-04T09:10:50.359Z,8.0
2018-06-04T09:12:49.534Z,8.0
2018-06-04T09:14:49.681Z,8.2
2018-06-04T09:16:49.969Z,7.4
2018-06-04T09:18:50.085Z,8.2
2018-06-04T09:20:50.159Z,8.0
2018-06-04T09:22:50.248Z,8.0
2018-06-04T09:24:49.538Z,8.2
2018-06-04T09:26:49.710Z,8.3
2018-06-04T09:28:49.835Z,8.4
2018-06-04T09:30:49.956Z,8.4
2018-06-04T09:32:50.153Z,8.5
2018-06-04T09:34:49.522Z,7.9
2018-06-04T09:36:49.651Z,7.7
2018-06-04T09:38:49.755Z,7.9
2018-06-04T09:40:49.902Z,7.9
2018-06-04T09:42:50.023Z,7.8
2018-06-04T09:44:50.107Z,7.7
2018-06-04T09:46:50.455Z,7.4
2018-06-04T09:48:49.674Z,7.4
2018-06-04T09:50:49.865Z,7.2
2018-06-04T09:52:50.002Z,7.2
2018-06-04T09:54:49.682Z,6.9
2018-06-04T09:56:50.017Z,7.3
2018-06-04T09:58:50.130Z,7.2
2018-06-04T10:00:50.355Z,7.2
2018-06-04T10:02:50.472Z,6.3
2018-06-04T10:04:49.737Z,6.7
2018-06-04T10:06:49.974Z,6.2
2018-06-04T10:08:50.118Z,6.2
2018-06-04T10:10:50.287Z,6.3
2018-06-04T10:12:50.474Z,6.1
2018-06-04T10:14:49.619Z,6.7
2018-06-04T10:16:49.825Z,6.1
2018-06-04T10:18:50.013Z,6.1
2018-06-04T10:20:50.385Z,5.8
2018-06-04T10:22:50.026Z,6.3
2018-06-04T10:24:50.199Z,6.2
2018-06-04T10:26:50.377Z,6.4
2018-06-04T10:28:49.591Z,6.7
2018-06-04T10:30:49.706Z,6.7
2018-06-04T10:32:49.864Z,6.3
2018-06-04T10:34:50.197Z,6.3
2018-06-04T10:36:50.474Z,6.8
2018-06-04T10:38:49.602Z,6.8
2018-06-04T10:40:49.807Z,6.7
2018-06-04T10:42:50.024Z,6.7
2018-06-04T10:44:50.171Z,6.3
2018-06-04T10:46:50.490Z,5.8
2018-06-04T10:48:49.638Z,5.8
2018-06-04T10:50:49.801Z,6.2
2018-06-04T10:52:49.943Z,6.3
2018-06-04T10:54:50.072Z,6.0
2018-06-04T10:56:50.228Z,6.0
2018-06-04T10:58:50.334Z,5.4
2018-06-04T11:00:50.489Z,5.2
2018-06-04T11:02:49.759Z,5.1
2018-06-04T11:04:50.299Z,5.5
2018-06-04T11:06:49.937Z,5.5
2018-06-04T11:08:50.018Z,5.1
2018-06-04T11:10:50.216Z,5.1
2018-06-04T11:12:50.438Z,5.3
2018-06-04T11:14:49.621Z,5.3
2018-06-04T11:16:49.987Z,5.3
2018-06-04T11:18:50.211Z,4.8
2018-06-04T11:20:49.628Z,5.1
2018-06-04T11:22:49.798Z,5.2
2018-06-04T11:24:49.904Z,4.9
2018-06-04T11:26:50.145Z,4.9
2018-06-04T11:28:50.305Z,4.9
2018-06-04T11:30:50.438Z,4.9
2018-06-04T11:32:49.590Z,5.4
2018-06-04T11:34:49.886Z,5.0
2018-06-04T11:36:50.219Z,5.0
2018-06-04T11:38:50.383Z,4.7
2018-06-04T11:40:50.485Z,5.0
2018-06-04T11:42:49.625Z,5.0
2018-06-04T11:44:49.804Z,5.1
2018-06-04T11:46:50.065Z,5.1
2018-06-04T11:48:50.279Z,4.8
2018-06-04T11:50:50.418Z,4.7
2018-06-04T11:52:49.607Z,4.8
2018-06-04T11:54:49.717Z,4.8
2018-06-04T11:56:49.935Z,4.8
2018-06-04T11:58:50.086Z,5.2
2018-06-04T12:00:50.227Z,5.5
2018-06-04T12:02:50.335Z,5.1
2018-06-04T12:04:49.845Z,5.1
2018-06-04T12:06:50.205Z,5.0
2018-06-04T12:08:50.385Z,5.1
2018-06-04T12:10:50.501Z,4.9
2018-06-04T12:12:49.597Z,4.9
2018-06-04T12:14:49.721Z,5.4
2018-06-04T12:16:49.914Z,4.7
2018-06-04T12:18:50.042Z,5.5
2018-06-04T12:20:50.092Z,5.1
2018-06-04T12:22:50.253Z,4.4
2018-06-04T12:24:50.298Z,4.4
2018-06-04T12:26:50.389Z,4.4
2018-06-04T12:28:50.492Z,4.6
2018-06-04T12:30:49.564Z,4.3
2018-06-04T12:32:49.685Z,4.5
2018-06-04T12:34:50.042Z,4.5
2018-06-04T12:36:50.176Z,4.3
2018-06-04T12:38:50.353Z,4.5
2018-06-04T12:40:50.535Z,4.2
2018-06-04T12:42:49.704Z,4.3
2018-06-04T12:44:49.820Z,4.3
2018-06-04T12:46:49.939Z,4.0
2018-06-04T12:48:50.064Z,4.3
2018-06-04T12:50:50.174Z,4.1
2018-06-04T12:52:50.289Z,4.1
2018-06-04T12:54:50.442Z,4.4
2018-06-04T12:56:49.583Z,4.4
2018-06-04T12:58:49.677Z,4.4
2018-06-04T13:00:49.807Z,4.2
2018-06-04T13:02:49.924Z,4.2
2018-06-04T13:04:49.748Z,4.5
2018-06-04T13:06:49.679Z,4.7
2018-06-04T13:08:49.826Z,4.7
2018-06-04T13:10:49.905Z,4.4
2018-06-04T13:12:50.024Z,4.4
2018-06-04T13:14:50.142Z,4.8
2018-06-04T13:16:50.373Z,4.7
2018-06-04T13:18:50.497Z,4.8
2018-06-04T13:20:49.564Z,4.3
2018-06-04T13:22:49.681Z,4.3
2018-06-04T13:24:49.796Z,4.5
2018-06-04T13:26:50.200Z,4.5
2018-06-04T13:28:50.300Z,4.2
2018-06-04T13:30:50.374Z,4.2
2018-06-04T13:32:50.490Z,4.5
2018-06-04T13:34:49.899Z,4.2
2018-06-04T13:36:50.079Z,4.0
2018-06-04T13:38:50.196Z,4.6
2018-06-04T13:40:50.245Z,4.6
2018-06-04T13:42:50.471Z,4.5
2018-06-04T13:44:49.564Z,4.5
2018-06-04T13:46:49.728Z,4.3
2018-06-04T13:48:49.845Z,4.4
2018-06-04T13:50:49.935Z,4.4
2018-06-04T13:52:50.078Z,4.2
2018-06-04T13:54:50.138Z,4.2
2018-06-04T13:56:50.314Z,4.1
2018-06-04T13:58:50.475Z,4.2
2018-06-04T14:00:49.631Z,4.2
2018-06-04T14:02:49.776Z,4.1
2018-06-04T14:04:50.355Z,4.1
2018-06-04T14:06:49.705Z,4.3
2018-06-04T14:08:50.002Z,3.9
2018-06-04T14:10:50.383Z,3.9
2018-06-04T14:12:50.459Z,3.7
2018-06-04T14:14:49.613Z,4.0
2018-06-04T14:16:49.803Z,4.0
2018-06-04T14:18:50.103Z,3.9
2018-06-04T14:20:50.326Z,3.9
2018-06-04T14:22:50.469Z,3.8
2018-06-04T14:24:49.707Z,3.9
2018-06-04T14:26:49.895Z,4.0
2018-06-04T14:28:50.033Z,4.0
2018-06-04T14:30:50.249Z,3.7
2018-06-04T14:32:50.460Z,3.9
2018-06-04T14:34:49.721Z,3.8
2018-06-04T14:36:50.058Z,3.7
2018-06-04T14:38:50.250Z,3.7
2018-06-04T14:40:50.319Z,3.7
2018-06-04T14:42:50.356Z,3.4
2018-06-04T14:44:49.731Z,3.8
2018-06-04T14:46:50.059Z,3.8
2018-06-04T14:48:50.174Z,3.7
2018-06-04T14:50:50.286Z,3.6
2018-06-04T14:52:50.448Z,3.5
2018-06-04T14:54:49.619Z,3.9
2018-06-04T14:56:49.801Z,3.6
2018-06-04T14:58:50.001Z,3.6
2018-06-04T15:00:50.148Z,3.6
2018-06-04T15:02:50.254Z,3.5
2018-06-04T15:04:49.587Z,3.4
2018-06-04T15:06:49.864Z,3.7
2018-06-04T15:08:50.014Z,3.7
2018-06-04T15:10:50.101Z,3.6
2018-06-04T15:12:50.232Z,3.4
2018-06-04T15:14:50.381Z,3.4
2018-06-04T15:16:49.564Z,3.5
2018-06-04T15:18:49.656Z,3.5
2018-06-04T15:20:49.760Z,3.6
2018-06-04T15:22:49.901Z,3.4
2018-06-04T15:24:50.034Z,3.2
2018-06-04T15:26:50.179Z,3.8
2018-06-04T15:28:50.251Z,3.8
2018-06-04T15:30:50.326Z,3.6
2018-06-04T15:32:50.399Z,3.9
2018-06-04T15:34:49.773Z,3.8
2018-06-04T15:36:49.987Z,3.8
2018-06-04T15:38:50.111Z,3.7
2018-06-04T15:40:50.218Z,3.5
2018-06-04T15:42:50.421Z,3.5
2018-06-04T15:44:49.545Z,3.4
2018-06-04T15:46:49.793Z,3.4
2018-06-04T15:48:49.958Z,3.7
2018-06-04T15:50:50.068Z,3.7
2018-06-04T15:52:50.295Z,3.1
2018-06-04T15:54:49.536Z,3.4
2018-06-04T15:56:49.722Z,3.4
2018-06-04T15:58:49.848Z,3.4
2018-06-04T16:00:50.043Z,3.5
2018-06-04T16:02:50.216Z,3.6
2018-06-04T16:04:49.702Z,3.6
2018-06-04T16:06:49.926Z,3.6
2018-06-04T16:08:50.123Z,3.5
2018-06-04T16:10:50.267Z,3.5
2018-06-04T16:12:50.404Z,3.6
2018-06-04T16:14:49.618Z,3.6
2018-06-04T16:16:50.181Z,3.6
2018-06-04T16:18:50.326Z,4.0
2018-06-04T16:20:49.567Z,3.6
2018-06-04T16:22:49.827Z,3.9
2018-06-04T16:24:49.980Z,3.9
2018-06-04T16:26:50.273Z,3.8
2018-06-04T16:28:50.390Z,3.6
2018-06-04T16:30:50.488Z,3.4
2018-06-04T16:32:49.661Z,3.4
2018-06-04T16:34:50.114Z,3.8
2018-06-04T16:36:50.247Z,3.7
2018-06-04T16:38:50.418Z,3.7
2018-06-04T16:40:49.551Z,3.7
2018-06-04T16:42:49.674Z,3.8
2018-06-04T16:44:49.920Z,3.8
2018-06-04T16:46:50.348Z,3.7
2018-06-04T16:48:50.525Z,3.9
2018-06-04T16:50:49.731Z,3.8
2018-06-04T16:52:49.908Z,3.8
2018-06-04T16:54:50.062Z,4.0
2018-06-04T16:56:50.330Z,3.9
2018-06-04T16:58:50.490Z,3.5
2018-06-04T17:00:49.593Z,4.2
2018-06-04T17:02:49.703Z,4.2
2018-06-04T17:04:50.039Z,3.7
2018-06-04T17:06:50.280Z,4.2
2018-06-04T17:08:50.396Z,4.1
2018-06-04T17:10:49.564Z,3.9
2018-06-04T17:12:49.698Z,3.9
2018-06-04T17:14:49.839Z,4.1
2018-06-04T17:16:50.066Z,4.3
2018-06-04T17:18:50.155Z,4.5
2018-06-04T17:20:50.264Z,4.6
2018-06-04T17:22:50.399Z,4.6
2018-06-04T17:24:50.487Z,4.6
2018-06-04T17:26:49.747Z,4.5
2018-06-04T17:28:49.853Z,4.9
2018-06-04T17:30:49.996Z,4.7
2018-06-04T17:32:50.182Z,4.7
2018-06-04T17:34:50.525Z,4.3
2018-06-04T17:36:49.758Z,5.0
2018-06-04T17:38:49.825Z,4.7
2018-06-04T17:40:49.997Z,4.4
2018-06-04T17:42:50.121Z,4.4
2018-06-04T17:44:50.217Z,4.8
2018-06-04T17:46:50.451Z,4.4
2018-06-04T17:48:49.592Z,4.5
2018-06-04T17:50:49.753Z,4.5
2018-06-04T17:52:49.899Z,4.9
2018-06-04T17:54:50.116Z,4.7
2018-06-04T17:56:50.330Z,4.7
2018-06-04T17:58:50.461Z,5.1
2018-06-04T18:00:49.693Z,4.7
2018-06-04T18:02:49.807Z,4.7
2018-06-04T18:04:50.218Z,4.9
2018-06-04T18:06:50.408Z,4.8
2018-06-04T18:08:50.521Z,5.2
2018-06-04T18:10:49.629Z,4.7
2018-06-04T18:12:49.818Z,4.7
2018-06-04T18:14:49.940Z,4.6
2018-06-04T18:16:50.075Z,4.8
2018-06-04T18:18:50.201Z,5.0
2018-06-04T18:20:50.305Z,5.0
2018-06-04T18:22:50.423Z,5.2
2018-06-04T18:24:49.688Z,5.2
2018-06-04T18:26:49.933Z,5.2
2018-06-04T18:28:50.091Z,5.2
2018-06-04T18:30:50.257Z,5.0
2018-06-04T18:32:50.342Z,5.1
2018-06-04T18:34:49.805Z,5.0
2018-06-04T18:36:50.000Z,5.4
2018-06-04T18:38:50.124Z,5.4
2018-06-04T18:40:50.270Z,5.1
2018-06-04T18:42:50.379Z,5.1
2018-06-04T18:44:50.518Z,5.1
2018-06-04T18:46:49.736Z,5.1
2018-06-04T18:48:49.922Z,5.1
2018-06-04T18:50:50.069Z,5.5
2018-06-04T18:52:50.323Z,5.7
2018-06-04T18:54:50.464Z,5.4
2018-06-04T18:56:49.702Z,5.4
2018-06-04T18:58:49.796Z,5.5
2018-06-04T19:00:49.904Z,6.0
2018-06-04T19:02:50.014Z,5.6
2018-06-04T19:04:50.340Z,5.6
2018-06-04T19:06:49.573Z,5.4
2018-06-04T19:08:49.891Z,5.4
2018-06-04T19:10:49.553Z,5.5
2018-06-04T19:12:49.646Z,5.3
2018-06-04T19:14:49.795Z,5.3
2018-06-04T19:16:50.196Z,5.6
2018-06-04T19:18:50.345Z,5.6
2018-06-04T19:20:50.502Z,5.7
2018-06-04T19:22:49.845Z,5.8
2018-06-04T19:24:50.037Z,5.7
2018-06-04T19:26:50.285Z,5.6
2018-06-04T19:28:49.693Z,5.6
2018-06-04T19:30:49.811Z,5.9
2018-06-04T19:32:49.954Z,5.7
2018-06-04T19:34:50.336Z,5.9
2018-06-04T19:36:50.493Z,6.0
2018-06-04T19:38:49.629Z,6.0
2018-06-04T19:40:49.707Z,6.2
2018-06-04T19:42:49.862Z,7.8
2018-06-04T19:44:49.982Z,7.8
2018-06-04T19:46:50.232Z,6.2
2018-06-04T19:48:50.387Z,6.2
2018-06-04T19:50:50.529Z,6.2
2018-06-04T19:52:49.638Z,6.8
2018-06-04T19:54:49.862Z,6.5
2018-06-04T19:56:50.319Z,6.5
2018-06-04T19:58:49.539Z,6.0
2018-06-04T20:00:49.633Z,5.9
2018-06-04T20:02:49.758Z,6.1
2018-06-04T20:04:50.151Z,6.6
2018-06-04T20:06:49.681Z,6.6
2018-06-04T20:08:49.809Z,6.6
2018-06-04T20:10:49.895Z,6.6
2018-06-04T20:12:50.034Z,6.3
2018-06-04T20:14:50.186Z,6.6
2018-06-04T20:16:50.347Z,6.6
2018-06-04T20:18:50.518Z,6.5
2018-06-04T20:20:49.627Z,6.3
2018-06-04T20:22:49.809Z,6.3
2018-06-04T20:24:49.993Z,6.3
2018-06-04T20:26:50.310Z,6.5
2018-06-04T20:28:50.458Z,6.6
2018-06-04T20:30:49.592Z,7.0
2018-06-04T20:32:49.678Z,7.4
2018-06-04T20:34:50.024Z,7.2
2018-06-04T20:36:50.234Z,7.2
2018-06-04T20:38:50.421Z,7.1
2018-06-04T20:40:49.535Z,6.6
2018-06-04T20:42:49.795Z,7.1
2018-06-04T20:44:49.890Z,7.1
2018-06-04T20:46:50.082Z,6.8
2018-06-04T20:48:50.489Z,6.6
2018-06-04T20:50:49.631Z,6.9
2018-06-04T20:52:49.832Z,7.1
2018-06-04T20:54:49.919Z,7.1
2018-06-04T20:56:50.232Z,6.8
2018-06-04T20:58:50.433Z,6.6
2018-06-04T21:00:49.631Z,6.7
2018-06-04T21:02:49.819Z,6.7
2018-06-04T21:04:50.187Z,7.2
2018-06-04T21:06:50.377Z,7.4
2018-06-04T21:08:49.531Z,6.9
2018-06-04T21:10:49.680Z,6.9
2018-06-04T21:12:49.839Z,6.9
2018-06-04T21:14:49.938Z,7.1
2018-06-04T21:16:50.088Z,6.9
2018-06-04T21:18:50.222Z,6.6
2018-06-04T21:20:50.347Z,6.6
2018-06-04T21:22:50.522Z,6.7
2018-06-04T21:24:49.639Z,6.7
2018-06-04T21:26:49.864Z,6.8
2018-06-04T21:28:49.989Z,6.6
2018-06-04T21:30:50.156Z,6.6
2018-06-04T21:32:50.288Z,6.7
2018-06-04T21:34:49.642Z,7.1
2018-06-04T21:36:49.870Z,6.6
2018-06-04T21:38:49.987Z,6.6
2018-06-04T21:40:50.129Z,7.1
2018-06-04T21:42:50.271Z,7.1
2018-06-04T21:44:50.423Z,6.8
2018-06-04T21:46:49.573Z,7.8
2018-06-04T21:48:49.743Z,7.8
2018-06-04T21:50:49.873Z,7.7
2018-06-04T21:52:49.995Z,7.7
2018-06-04T21:54:50.086Z,7.6
2018-06-04T21:56:50.453Z,7.9
2018-06-04T21:58:49.540Z,7.9
2018-06-04T22:00:49.751Z,7.7
2018-06-04T22:02:49.961Z,7.8
2018-06-04T22:04:50.342Z,7.7
2018-06-04T22:06:49.624Z,7.3
2018-06-04T22:08:49.809Z,7.3
2018-06-04T22:10:49.952Z,7.3
2018-06-04T22:12:50.080Z,8.0
2018-06-04T22:14:50.211Z,8.3
2018-06-04T22:16:49.734Z,7.9
2018-06-04T22:18:49.569Z,7.5
2018-06-04T22:20:49.767Z,7.5
2018-06-04T22:22:50.012Z,8.1
2018-06-04T22:24:50.186Z,7.9
2018-06-04T22:26:50.458Z,8.6
2018-06-04T22:28:49.669Z,8.6
2018-06-04T22:30:49.868Z,8.0
2018-06-04T22:32:50.051Z,8.0
2018-06-04T22:34:49.565Z,8.1
2018-06-04T22:36:49.867Z,7.8
2018-06-04T22:38:50.016Z,7.8
2018-06-04T22:40:50.167Z,8.1
2018-06-04T22:42:50.302Z,8.7
2018-06-04T22:44:50.380Z,8.4
2018-06-04T22:46:49.704Z,8.4
2018-06-04T22:48:49.773Z,8.4
2018-06-04T22:50:49.916Z,8.4
2018-06-04T22:52:49.978Z,8.3
2018-06-04T22:54:50.266Z,8.5
2018-06-04T22:56:49.818Z,8.6
2018-06-04T22:58:49.947Z,8.6
2018-06-04T23:00:50.081Z,8.3
2018-06-04T23:02:50.264Z,8.7
2018-06-04T23:04:49.584Z,8.3
2018-06-04T23:06:49.823Z,8.3
2018-06-04T23:08:50.025Z,8.7
2018-06-04T23:10:50.458Z,8.9
2018-06-04T23:12:49.567Z,8.7
2018-06-04T23:14:49.751Z,8.7
2018-06-04T23:16:49.992Z,8.6
2018-06-04T23:18:50.159Z,8.6
2018-06-04T23:20:50.288Z,9.2
2018-06-04T23:22:49.744Z,8.4
2018-06-04T23:24:50.146Z,9.1
2018-06-04T23:26:50.355Z,9.1
2018-06-04T23:28:50.516Z,9.4
2018-06-04T23:30:49.585Z,8.9
2018-06-04T23:32:49.720Z,8.5
2018-06-04T23:34:50.116Z,8.5
2018-06-04T23:36:50.350Z,8.5
2018-06-04T23:38:49.580Z,8.9
2018-06-04T23:40:49.688Z,8.9
2018-06-04T23:42:49.848Z,9.6
2018-06-04T23:44:50.026Z,8.6
2018-06-04T23:46:50.316Z,9.5
2018-06-04T23:48:50.407Z,9.5
2018-06-04T23:50:49.561Z,8.9
2018-06-04T23:52:49.652Z,9.0
2018-06-04T23:54:49.789Z,9.6
2018-06-04T23:56:50.055Z,9.4
2018-06-04T23:58:50.154Z,9.4
